Airfield :
LOGIN :

Register | Disclaimer

   EN    FR    IT 

 










Legend :    VFR   Marginal VFR   IFR   Intensive IFR   Very Intensive IFR
Visi :
Ceiling :
>= 8 km
>= 3000ft
5 to 8 km
1000 to 3000 ft
1500m to 5 km
500 to 1000 ft
800 to 1500m
200 to 500 ft
< 800m
< 200 ft
Symbols :   Thunderstorms  Fog  Heavy snow  Heavy precipitations  Wind > 20 kt
SIGMETs :     Misc.  Thunderstorms  Icing  Turbulence  Mountain Waves  Volcanic Ashes






- Airport Elevation : 297 ft


EGVP - Middle Wallop

CURRENT METAR :
  • 201420Z 03004KT CAVOK 20/06 Q1012 NOSIG RMK BLU BLU

EXPIRED METARs :
  • 201350Z 02006KT 9999 FEW046 19/07 Q1013 NOSIG RMK BLU BLU
  • 201320Z 01007KT 9999 FEW044 20/08 Q1013 NOSIG RMK BLU BLU
  • 201250Z 01009KT 9999 FEW044 20/09 Q1013 NOSIG RMK BLU BLU
  • 201220Z 03008KT 9999 FEW045 19/09 Q1013 NOSIG RMK BLU BLU
  • 201150Z 04008KT 9999 FEW044 19/08 Q1013 NOSIG RMK BLU BLU
  • 201120Z 07010KT CAVOK 18/07 Q1014 NOSIG RMK BLU BLU
  • 201050Z 05007KT CAVOK 17/07 Q1014 NOSIG RMK BLU BLU
  • 201020Z 04007KT CAVOK 17/08 Q1014 NOSIG RMK BLU BLU
  • 200950Z 01006KT CAVOK 17/08 Q1014 NOSIG RMK BLU BLU

TAF TAF EGVP
Valid from the 20 at 15:00 until the 21 at 00:00 UTC


201334Z 2015/2024 06009KT 9999 FEW045
PROB30
TEMPO 2017/2021 7000 SHRA
ATIS : +44 1980 674 142



MET'MAP, your aeronautical weather chart ! - Copyright ORBIFLY December 2007 - Disclaimer

ORBIFLY MET'MAP TEAM :

Programming & Development : Alexandra Zaïnal
Original concept : Baudouin d'Aumeries
Technical & hardware support : Manuel Goepfert
Assistance : Marc-Olivier Méhu




SOURCES & CREDITS :

   NOAA